sensor_id;sensor_type;location;lat;lon;timestamp;P1;durP1;ratioP1;P2;durP2;ratioP2
73359;SDS011;63092;43.582;19.528;2023-04-03T00:02:14;17.35;;;9.63;;
73359;SDS011;63092;43.582;19.528;2023-04-03T00:04:40;15.20;;;9.05;;
73359;SDS011;63092;43.582;19.528;2023-04-03T00:07:06;16.10;;;9.65;;
73359;SDS011;63092;43.582;19.528;2023-04-03T00:09:31;18.25;;;9.73;;
73359;SDS011;63092;43.582;19.528;2023-04-03T00:11:57;17.55;;;9.82;;
73359;SDS011;63092;43.582;19.528;2023-04-03T00:14:22;19.10;;;11.85;;
73359;SDS011;63092;43.582;19.528;2023-04-03T00:16:48;18.95;;;10.23;;
73359;SDS011;63092;43.582;19.528;2023-04-03T00:19:14;18.20;;;10.10;;
73359;SDS011;63092;43.582;19.528;2023-04-03T00:21:40;17.27;;;9.77;;
73359;SDS011;63092;43.582;19.528;2023-04-03T00:24:06;16.85;;;9.95;;
73359;SDS011;63092;43.582;19.528;2023-04-03T00:26:31;16.08;;;9.73;;
73359;SDS011;63092;43.582;19.528;2023-04-03T00:28:57;21.33;;;10.32;;
73359;SDS011;63092;43.582;19.528;2023-04-03T00:31:23;18.30;;;9.38;;
73359;SDS011;63092;43.582;19.528;2023-04-03T00:33:48;34.33;;;15.85;;
73359;SDS011;63092;43.582;19.528;2023-04-03T00:36:14;47.95;;;20.27;;
73359;SDS011;63092;43.582;19.528;2023-04-03T00:38:41;34.38;;;16.25;;
73359;SDS011;63092;43.582;19.528;2023-04-03T00:41:06;28.55;;;14.35;;
73359;SDS011;63092;43.582;19.528;2023-04-03T00:43:32;21.52;;;11.00;;
73359;SDS011;63092;43.582;19.528;2023-04-03T00:45:58;16.75;;;8.25;;
73359;SDS011;63092;43.582;19.528;2023-04-03T00:51:02;73.22;;;33.97;;
73359;SDS011;63092;43.582;19.528;2023-04-03T00:53:31;13.60;;;8.70;;
73359;SDS011;63092;43.582;19.528;2023-04-03T00:56:05;14.55;;;7.47;;
73359;SDS011;63092;43.582;19.528;2023-04-03T00:58:37;13.43;;;7.93;;
73359;SDS011;63092;43.582;19.528;2023-04-03T01:01:08;13.50;;;7.75;;
73359;SDS011;63092;43.582;19.528;2023-04-03T01:03:39;15.07;;;7.65;;
73359;SDS011;63092;43.582;19.528;2023-04-03T01:06:05;18.08;;;8.15;;
73359;SDS011;63092;43.582;19.528;2023-04-03T01:08:31;17.33;;;9.30;;
73359;SDS011;63092;43.582;19.528;2023-04-03T01:10:57;14.65;;;8.45;;
73359;SDS011;63092;43.582;19.528;2023-04-03T01:13:30;14.15;;;8.23;;
73359;SDS011;63092;43.582;19.528;2023-04-03T01:15:57;15.70;;;8.32;;
73359;SDS011;63092;43.582;19.528;2023-04-03T01:18:27;14.63;;;7.28;;
73359;SDS011;63092;43.582;19.528;2023-04-03T01:26:27;18.98;;;8.95;;
73359;SDS011;63092;43.582;19.528;2023-04-03T01:28:54;26.63;;;11.85;;
73359;SDS011;63092;43.582;19.528;2023-04-03T01:34:08;23.13;;;11.55;;
73359;SDS011;63092;43.582;19.528;2023-04-03T01:36:34;14.55;;;8.65;;
73359;SDS011;63092;43.582;19.528;2023-04-03T01:39:00;15.57;;;8.88;;
73359;SDS011;63092;43.582;19.528;2023-04-03T01:41:26;13.88;;;7.38;;
73359;SDS011;63092;43.582;19.528;2023-04-03T01:43:52;14.10;;;7.38;;
73359;SDS011;63092;43.582;19.528;2023-04-03T01:46:18;16.17;;;7.55;;
73359;SDS011;63092;43.582;19.528;2023-04-03T01:48:45;16.38;;;8.05;;
73359;SDS011;63092;43.582;19.528;2023-04-03T01:51:10;14.07;;;7.88;;
73359;SDS011;63092;43.582;19.528;2023-04-03T01:53:36;11.85;;;6.80;;
73359;SDS011;63092;43.582;19.528;2023-04-03T01:56:02;14.40;;;8.07;;
73359;SDS011;63092;43.582;19.528;2023-04-03T01:58:28;15.25;;;8.55;;
73359;SDS011;63092;43.582;19.528;2023-04-03T02:00:54;21.45;;;9.95;;
73359;SDS011;63092;43.582;19.528;2023-04-03T02:03:20;17.90;;;9.82;;
73359;SDS011;63092;43.582;19.528;2023-04-03T02:05:46;26.50;;;11.57;;
73359;SDS011;63092;43.582;19.528;2023-04-03T02:08:12;24.38;;;11.98;;
73359;SDS011;63092;43.582;19.528;2023-04-03T02:10:38;16.60;;;9.00;;
73359;SDS011;63092;43.582;19.528;2023-04-03T02:13:04;14.60;;;8.43;;
73359;SDS011;63092;43.582;19.528;2023-04-03T02:15:30;16.92;;;8.18;;
73359;SDS011;63092;43.582;19.528;2023-04-03T02:17:56;14.70;;;8.10;;
73359;SDS011;63092;43.582;19.528;2023-04-03T02:20:22;14.40;;;7.53;;
73359;SDS011;63092;43.582;19.528;2023-04-03T02:22:48;11.55;;;6.93;;
73359;SDS011;63092;43.582;19.528;2023-04-03T02:25:13;12.73;;;6.90;;
73359;SDS011;63092;43.582;19.528;2023-04-03T02:27:39;13.77;;;7.97;;
73359;SDS011;63092;43.582;19.528;2023-04-03T02:30:06;12.75;;;7.47;;
73359;SDS011;63092;43.582;19.528;2023-04-03T02:32:34;10.40;;;6.33;;
73359;SDS011;63092;43.582;19.528;2023-04-03T02:35:00;14.05;;;6.25;;
73359;SDS011;63092;43.582;19.528;2023-04-03T02:37:25;11.63;;;6.60;;
73359;SDS011;63092;43.582;19.528;2023-04-03T02:39:51;12.65;;;6.63;;
73359;SDS011;63092;43.582;19.528;2023-04-03T02:42:17;11.13;;;6.70;;
73359;SDS011;63092;43.582;19.528;2023-04-03T02:44:42;11.75;;;6.00;;
73359;SDS011;63092;43.582;19.528;2023-04-03T02:47:08;13.10;;;6.97;;
73359;SDS011;63092;43.582;19.528;2023-04-03T02:49:34;15.05;;;7.18;;
73359;SDS011;63092;43.582;19.528;2023-04-03T02:51:59;9.98;;;6.00;;
73359;SDS011;63092;43.582;19.528;2023-04-03T02:54:25;9.18;;;6.43;;
73359;SDS011;63092;43.582;19.528;2023-04-03T02:56:53;11.05;;;6.13;;
73359;SDS011;63092;43.582;19.528;2023-04-03T02:59:19;10.18;;;4.93;;
73359;SDS011;63092;43.582;19.528;2023-04-03T03:01:45;9.63;;;5.10;;
73359;SDS011;63092;43.582;19.528;2023-04-03T03:04:11;8.80;;;4.90;;
73359;SDS011;63092;43.582;19.528;2023-04-03T03:06:37;10.10;;;5.20;;
73359;SDS011;63092;43.582;19.528;2023-04-03T03:09:02;8.65;;;4.85;;
73359;SDS011;63092;43.582;19.528;2023-04-03T03:11:29;12.20;;;5.82;;
73359;SDS011;63092;43.582;19.528;2023-04-03T03:13:55;9.45;;;5.47;;
73359;SDS011;63092;43.582;19.528;2023-04-03T03:16:21;9.05;;;5.38;;
73359;SDS011;63092;43.582;19.528;2023-04-03T03:18:46;12.82;;;5.97;;
73359;SDS011;63092;43.582;19.528;2023-04-03T03:21:12;10.80;;;6.47;;
73359;SDS011;63092;43.582;19.528;2023-04-03T03:23:38;14.10;;;6.78;;
73359;SDS011;63092;43.582;19.528;2023-04-03T03:26:06;9.88;;;5.22;;
73359;SDS011;63092;43.582;19.528;2023-04-03T03:28:35;8.85;;;4.75;;
73359;SDS011;63092;43.582;19.528;2023-04-03T03:31:01;7.97;;;4.80;;
73359;SDS011;63092;43.582;19.528;2023-04-03T03:33:27;10.30;;;5.38;;
73359;SDS011;63092;43.582;19.528;2023-04-03T03:35:53;9.55;;;4.93;;
73359;SDS011;63092;43.582;19.528;2023-04-03T03:38:19;8.60;;;4.97;;
73359;SDS011;63092;43.582;19.528;2023-04-03T03:40:46;9.80;;;5.30;;
73359;SDS011;63092;43.582;19.528;2023-04-03T03:43:13;12.73;;;4.63;;
73359;SDS011;63092;43.582;19.528;2023-04-03T03:45:39;7.80;;;4.65;;
73359;SDS011;63092;43.582;19.528;2023-04-03T03:48:05;7.22;;;4.60;;
73359;SDS011;63092;43.582;19.528;2023-04-03T03:50:31;8.25;;;4.70;;
73359;SDS011;63092;43.582;19.528;2023-04-03T03:52:56;8.85;;;5.03;;
73359;SDS011;63092;43.582;19.528;2023-04-03T03:55:22;10.05;;;4.70;;
73359;SDS011;63092;43.582;19.528;2023-04-03T03:57:47;9.70;;;4.50;;
73359;SDS011;63092;43.582;19.528;2023-04-03T04:00:13;9.60;;;4.82;;
73359;SDS011;63092;43.582;19.528;2023-04-03T04:02:39;9.85;;;6.05;;
73359;SDS011;63092;43.582;19.528;2023-04-03T04:05:05;10.70;;;5.65;;
73359;SDS011;63092;43.582;19.528;2023-04-03T04:07:31;10.93;;;5.45;;
73359;SDS011;63092;43.582;19.528;2023-04-03T04:09:57;9.45;;;5.40;;
73359;SDS011;63092;43.582;19.528;2023-04-03T04:12:23;7.95;;;5.30;;
73359;SDS011;63092;43.582;19.528;2023-04-03T04:14:48;9.38;;;5.25;;
73359;SDS011;63092;43.582;19.528;2023-04-03T04:17:14;18.13;;;7.70;;
73359;SDS011;63092;43.582;19.528;2023-04-03T04:19:40;13.98;;;6.63;;
73359;SDS011;63092;43.582;19.528;2023-04-03T04:22:05;14.07;;;6.57;;
73359;SDS011;63092;43.582;19.528;2023-04-03T04:24:32;16.00;;;7.43;;
73359;SDS011;63092;43.582;19.528;2023-04-03T04:26:57;10.90;;;6.40;;
73359;SDS011;63092;43.582;19.528;2023-04-03T04:29:23;10.40;;;5.60;;
73359;SDS011;63092;43.582;19.528;2023-04-03T04:31:49;10.38;;;5.72;;
73359;SDS011;63092;43.582;19.528;2023-04-03T04:34:15;10.88;;;5.72;;
73359;SDS011;63092;43.582;19.528;2023-04-03T04:36:41;13.88;;;6.85;;
73359;SDS011;63092;43.582;19.528;2023-04-03T04:39:07;14.60;;;6.60;;
73359;SDS011;63092;43.582;19.528;2023-04-03T04:41:33;12.20;;;6.88;;
73359;SDS011;63092;43.582;19.528;2023-04-03T04:43:59;10.15;;;5.63;;
73359;SDS011;63092;43.582;19.528;2023-04-03T04:46:25;9.55;;;5.95;;
73359;SDS011;63092;43.582;19.528;2023-04-03T04:48:51;10.07;;;6.30;;
73359;SDS011;63092;43.582;19.528;2023-04-03T04:51:16;10.95;;;6.20;;
73359;SDS011;63092;43.582;19.528;2023-04-03T04:53:42;11.25;;;6.40;;
73359;SDS011;63092;43.582;19.528;2023-04-03T04:56:08;12.18;;;6.57;;
73359;SDS011;63092;43.582;19.528;2023-04-03T04:58:35;17.45;;;9.70;;
73359;SDS011;63092;43.582;19.528;2023-04-03T05:01:01;18.90;;;11.27;;
73359;SDS011;63092;43.582;19.528;2023-04-03T05:03:28;16.75;;;9.38;;
73359;SDS011;63092;43.582;19.528;2023-04-03T05:05:53;17.55;;;10.23;;
73359;SDS011;63092;43.582;19.528;2023-04-03T05:08:19;14.93;;;7.80;;
73359;SDS011;63092;43.582;19.528;2023-04-03T05:10:45;66.38;;;31.35;;
73359;SDS011;63092;43.582;19.528;2023-04-03T05:13:11;20.45;;;14.15;;
73359;SDS011;63092;43.582;19.528;2023-04-03T05:15:38;25.42;;;12.65;;
73359;SDS011;63092;43.582;19.528;2023-04-03T05:18:03;16.00;;;11.23;;
73359;SDS011;63092;43.582;19.528;2023-04-03T05:20:30;17.95;;;11.43;;
73359;SDS011;63092;43.582;19.528;2023-04-03T05:22:56;19.98;;;11.63;;
73359;SDS011;63092;43.582;19.528;2023-04-03T05:25:21;15.23;;;8.63;;
73359;SDS011;63092;43.582;19.528;2023-04-03T05:27:47;16.02;;;7.53;;
73359;SDS011;63092;43.582;19.528;2023-04-03T05:30:13;18.23;;;9.63;;
73359;SDS011;63092;43.582;19.528;2023-04-03T05:32:39;13.10;;;7.15;;
73359;SDS011;63092;43.582;19.528;2023-04-03T05:35:06;23.40;;;13.50;;
73359;SDS011;63092;43.582;19.528;2023-04-03T05:37:32;12.75;;;7.90;;
73359;SDS011;63092;43.582;19.528;2023-04-03T05:39:58;11.40;;;7.95;;
73359;SDS011;63092;43.582;19.528;2023-04-03T05:42:24;15.10;;;9.55;;
73359;SDS011;63092;43.582;19.528;2023-04-03T05:44:50;15.52;;;9.13;;
73359;SDS011;63092;43.582;19.528;2023-04-03T05:47:16;13.10;;;8.20;;
73359;SDS011;63092;43.582;19.528;2023-04-03T05:49:42;12.82;;;7.25;;
73359;SDS011;63092;43.582;19.528;2023-04-03T05:52:31;15.68;;;9.23;;
73359;SDS011;63092;43.582;19.528;2023-04-03T05:54:58;14.00;;;8.93;;
73359;SDS011;63092;43.582;19.528;2023-04-03T05:57:24;20.35;;;11.52;;
73359;SDS011;63092;43.582;19.528;2023-04-03T05:59:49;20.98;;;12.80;;
73359;SDS011;63092;43.582;19.528;2023-04-03T06:02:16;21.42;;;11.50;;
73359;SDS011;63092;43.582;19.528;2023-04-03T06:04:44;13.85;;;9.30;;
73359;SDS011;63092;43.582;19.528;2023-04-03T06:07:14;11.63;;;7.63;;
73359;SDS011;63092;43.582;19.528;2023-04-03T06:09:41;16.85;;;10.38;;
73359;SDS011;63092;43.582;19.528;2023-04-03T06:12:07;15.57;;;11.85;;
73359;SDS011;63092;43.582;19.528;2023-04-03T06:14:34;12.38;;;8.02;;
73359;SDS011;63092;43.582;19.528;2023-04-03T06:17:00;12.40;;;7.60;;
73359;SDS011;63092;43.582;19.528;2023-04-03T06:19:26;8.90;;;4.32;;
73359;SDS011;63092;43.582;19.528;2023-04-03T06:21:52;14.57;;;7.40;;
73359;SDS011;63092;43.582;19.528;2023-04-03T06:24:18;9.88;;;5.60;;
73359;SDS011;63092;43.582;19.528;2023-04-03T06:26:46;12.90;;;7.93;;
73359;SDS011;63092;43.582;19.528;2023-04-03T06:29:12;16.15;;;8.25;;
73359;SDS011;63092;43.582;19.528;2023-04-03T06:31:38;10.18;;;5.78;;
73359;SDS011;63092;43.582;19.528;2023-04-03T06:34:04;9.32;;;5.68;;
73359;SDS011;63092;43.582;19.528;2023-04-03T06:36:31;11.10;;;6.45;;
73359;SDS011;63092;43.582;19.528;2023-04-03T06:38:57;9.70;;;5.55;;
73359;SDS011;63092;43.582;19.528;2023-04-03T06:41:22;12.95;;;5.90;;
73359;SDS011;63092;43.582;19.528;2023-04-03T06:43:48;22.00;;;11.85;;
73359;SDS011;63092;43.582;19.528;2023-04-03T06:46:15;19.58;;;9.73;;
73359;SDS011;63092;43.582;19.528;2023-04-03T06:48:46;15.25;;;7.50;;
73359;SDS011;63092;43.582;19.528;2023-04-03T06:51:24;13.40;;;7.03;;
73359;SDS011;63092;43.582;19.528;2023-04-03T06:53:52;25.02;;;15.00;;
73359;SDS011;63092;43.582;19.528;2023-04-03T06:56:20;14.90;;;9.75;;
73359;SDS011;63092;43.582;19.528;2023-04-03T06:58:46;9.93;;;6.45;;
73359;SDS011;63092;43.582;19.528;2023-04-03T07:01:12;9.38;;;6.28;;
73359;SDS011;63092;43.582;19.528;2023-04-03T07:03:40;10.05;;;6.88;;
73359;SDS011;63092;43.582;19.528;2023-04-03T07:06:06;10.88;;;7.15;;
73359;SDS011;63092;43.582;19.528;2023-04-03T07:08:35;14.70;;;8.52;;
73359;SDS011;63092;43.582;19.528;2023-04-03T07:11:01;15.05;;;9.27;;
73359;SDS011;63092;43.582;19.528;2023-04-03T07:13:28;16.13;;;9.68;;
73359;SDS011;63092;43.582;19.528;2023-04-03T07:15:54;15.07;;;9.75;;
73359;SDS011;63092;43.582;19.528;2023-04-03T07:18:19;18.15;;;10.45;;
73359;SDS011;63092;43.582;19.528;2023-04-03T07:20:46;10.35;;;6.63;;
73359;SDS011;63092;43.582;19.528;2023-04-03T07:23:12;17.10;;;9.48;;
73359;SDS011;63092;43.582;19.528;2023-04-03T07:25:42;12.35;;;7.60;;
73359;SDS011;63092;43.582;19.528;2023-04-03T07:28:08;12.85;;;7.03;;
73359;SDS011;63092;43.582;19.528;2023-04-03T07:30:34;11.68;;;7.15;;
73359;SDS011;63092;43.582;19.528;2023-04-03T07:33:07;12.93;;;7.32;;
73359;SDS011;63092;43.582;19.528;2023-04-03T07:35:32;13.20;;;7.63;;
73359;SDS011;63092;43.582;19.528;2023-04-03T07:37:58;6.85;;;4.63;;
73359;SDS011;63092;43.582;19.528;2023-04-03T07:40:24;12.35;;;8.00;;
73359;SDS011;63092;43.582;19.528;2023-04-03T07:42:50;17.23;;;9.98;;
73359;SDS011;63092;43.582;19.528;2023-04-03T07:45:16;15.73;;;10.00;;
73359;SDS011;63092;43.582;19.528;2023-04-03T07:47:42;8.48;;;5.35;;
73359;SDS011;63092;43.582;19.528;2023-04-03T07:50:08;20.60;;;11.48;;
73359;SDS011;63092;43.582;19.528;2023-04-03T07:52:33;13.60;;;8.80;;
73359;SDS011;63092;43.582;19.528;2023-04-03T07:54:59;22.20;;;11.18;;
73359;SDS011;63092;43.582;19.528;2023-04-03T07:57:25;12.95;;;6.80;;
73359;SDS011;63092;43.582;19.528;2023-04-03T07:59:50;11.80;;;7.50;;
73359;SDS011;63092;43.582;19.528;2023-04-03T08:02:16;10.35;;;5.35;;
73359;SDS011;63092;43.582;19.528;2023-04-03T08:04:42;6.90;;;5.18;;
73359;SDS011;63092;43.582;19.528;2023-04-03T08:07:07;11.20;;;7.00;;
73359;SDS011;63092;43.582;19.528;2023-04-03T08:09:33;9.77;;;6.70;;
73359;SDS011;63092;43.582;19.528;2023-04-03T08:11:58;9.73;;;4.85;;
73359;SDS011;63092;43.582;19.528;2023-04-03T08:14:24;6.50;;;4.00;;
73359;SDS011;63092;43.582;19.528;2023-04-03T08:16:50;5.80;;;3.60;;
73359;SDS011;63092;43.582;19.528;2023-04-03T08:19:16;6.10;;;3.67;;
73359;SDS011;63092;43.582;19.528;2023-04-03T08:21:43;5.25;;;2.60;;
73359;SDS011;63092;43.582;19.528;2023-04-03T08:24:10;4.53;;;2.72;;
73359;SDS011;63092;43.582;19.528;2023-04-03T08:26:36;3.97;;;2.53;;
73359;SDS011;63092;43.582;19.528;2023-04-03T08:29:02;4.40;;;2.28;;
73359;SDS011;63092;43.582;19.528;2023-04-03T08:31:28;5.90;;;2.80;;
73359;SDS011;63092;43.582;19.528;2023-04-03T08:33:56;5.03;;;2.85;;
73359;SDS011;63092;43.582;19.528;2023-04-03T08:36:23;15.23;;;8.07;;
73359;SDS011;63092;43.582;19.528;2023-04-03T08:38:51;3.63;;;2.13;;
73359;SDS011;63092;43.582;19.528;2023-04-03T08:41:25;9.95;;;5.60;;
73359;SDS011;63092;43.582;19.528;2023-04-03T08:50:01;15.60;;;6.57;;
73359;SDS011;63092;43.582;19.528;2023-04-03T08:52:15;12.90;;;6.43;;
73359;SDS011;63092;43.582;19.528;2023-04-03T08:54:57;16.23;;;8.55;;
73359;SDS011;63092;43.582;19.528;2023-04-03T08:57:28;5.32;;;2.80;;
73359;SDS011;63092;43.582;19.528;2023-04-03T09:00:01;4.55;;;2.10;;
73359;SDS011;63092;43.582;19.528;2023-04-03T09:02:50;7.35;;;3.90;;
73359;SDS011;63092;43.582;19.528;2023-04-03T09:07:47;27.30;;;14.00;;
73359;SDS011;63092;43.582;19.528;2023-04-03T09:10:29;7.47;;;4.88;;
73359;SDS011;63092;43.582;19.528;2023-04-03T09:13:05;6.38;;;3.28;;
73359;SDS011;63092;43.582;19.528;2023-04-03T09:15:38;18.42;;;10.13;;
73359;SDS011;63092;43.582;19.528;2023-04-03T09:18:08;4.00;;;2.10;;
73359;SDS011;63092;43.582;19.528;2023-04-03T09:20:54;5.90;;;3.50;;
73359;SDS011;63092;43.582;19.528;2023-04-03T09:26:13;6.53;;;3.38;;
73359;SDS011;63092;43.582;19.528;2023-04-03T09:28:42;8.75;;;4.75;;
73359;SDS011;63092;43.582;19.528;2023-04-03T09:31:16;4.75;;;3.15;;
73359;SDS011;63092;43.582;19.528;2023-04-03T09:33:48;13.68;;;10.27;;
73359;SDS011;63092;43.582;19.528;2023-04-03T09:36:36;7.68;;;4.55;;
73359;SDS011;63092;43.582;19.528;2023-04-03T09:39:07;6.85;;;4.15;;
73359;SDS011;63092;43.582;19.528;2023-04-03T09:42:03;11.90;;;5.80;;
73359;SDS011;63092;43.582;19.528;2023-04-03T09:44:44;9.32;;;4.82;;
73359;SDS011;63092;43.582;19.528;2023-04-03T09:47:29;12.75;;;5.93;;
73359;SDS011;63092;43.582;19.528;2023-04-03T09:52:43;3.65;;;1.88;;
73359;SDS011;63092;43.582;19.528;2023-04-03T09:55:21;5.15;;;2.60;;
73359;SDS011;63092;43.582;19.528;2023-04-03T09:57:52;5.55;;;2.70;;
73359;SDS011;63092;43.582;19.528;2023-04-03T10:00:20;10.57;;;6.55;;
73359;SDS011;63092;43.582;19.528;2023-04-03T10:02:48;6.28;;;3.28;;
73359;SDS011;63092;43.582;19.528;2023-04-03T10:05:27;5.72;;;3.38;;
73359;SDS011;63092;43.582;19.528;2023-04-03T10:08:58;7.38;;;4.35;;
73359;SDS011;63092;43.582;19.528;2023-04-03T10:11:06;7.15;;;4.07;;
73359;SDS011;63092;43.582;19.528;2023-04-03T10:13:49;19.20;;;11.65;;
73359;SDS011;63092;43.582;19.528;2023-04-03T10:16:21;8.07;;;5.05;;
73359;SDS011;63092;43.582;19.528;2023-04-03T10:34:48;10.10;;;6.65;;
73359;SDS011;63092;43.582;19.528;2023-04-03T10:37:29;11.63;;;6.53;;
73359;SDS011;63092;43.582;19.528;2023-04-03T10:40:05;16.38;;;7.22;;
73359;SDS011;63092;43.582;19.528;2023-04-03T10:42:50;15.48;;;7.53;;
73359;SDS011;63092;43.582;19.528;2023-04-03T10:45:28;7.95;;;4.53;;
73359;SDS011;63092;43.582;19.528;2023-04-03T10:48:49;12.05;;;5.85;;
73359;SDS011;63092;43.582;19.528;2023-04-03T10:56:47;4.35;;;2.55;;
73359;SDS011;63092;43.582;19.528;2023-04-03T10:59:25;4.68;;;2.65;;
73359;SDS011;63092;43.582;19.528;2023-04-03T11:01:53;5.45;;;2.60;;
73359;SDS011;63092;43.582;19.528;2023-04-03T11:04:24;4.25;;;2.05;;
73359;SDS011;63092;43.582;19.528;2023-04-03T11:09:24;5.00;;;2.60;;
73359;SDS011;63092;43.582;19.528;2023-04-03T11:11:55;4.57;;;2.40;;
73359;SDS011;63092;43.582;19.528;2023-04-03T11:22:35;5.63;;;3.42;;
73359;SDS011;63092;43.582;19.528;2023-04-03T11:27:40;8.90;;;4.40;;
73359;SDS011;63092;43.582;19.528;2023-04-03T11:30:33;11.38;;;5.65;;
73359;SDS011;63092;43.582;19.528;2023-04-03T11:36:11;13.18;;;7.40;;
73359;SDS011;63092;43.582;19.528;2023-04-03T11:38:45;9.60;;;6.88;;
73359;SDS011;63092;43.582;19.528;2023-04-03T11:41:12;10.27;;;6.18;;
73359;SDS011;63092;43.582;19.528;2023-04-03T11:43:54;11.02;;;6.53;;
73359;SDS011;63092;43.582;19.528;2023-04-03T11:46:40;15.57;;;10.38;;
73359;SDS011;63092;43.582;19.528;2023-04-03T12:05:52;14.57;;;7.35;;
73359;SDS011;63092;43.582;19.528;2023-04-03T12:13:41;21.00;;;10.15;;
73359;SDS011;63092;43.582;19.528;2023-04-03T12:16:42;11.93;;;6.80;;
73359;SDS011;63092;43.582;19.528;2023-04-03T12:46:23;9.10;;;5.03;;
73359;SDS011;63092;43.582;19.528;2023-04-03T12:48:53;7.13;;;3.58;;
73359;SDS011;63092;43.582;19.528;2023-04-03T12:54:03;16.95;;;8.15;;
73359;SDS011;63092;43.582;19.528;2023-04-03T12:56:38;10.15;;;5.25;;
73359;SDS011;63092;43.582;19.528;2023-04-03T12:59:15;6.95;;;4.05;;
73359;SDS011;63092;43.582;19.528;2023-04-03T13:02:01;15.00;;;7.95;;
73359;SDS011;63092;43.582;19.528;2023-04-03T13:04:28;13.95;;;7.25;;
73359;SDS011;63092;43.582;19.528;2023-04-03T13:06:56;8.93;;;5.20;;
73359;SDS011;63092;43.582;19.528;2023-04-03T13:09:32;13.43;;;7.90;;
73359;SDS011;63092;43.582;19.528;2023-04-03T13:12:01;11.68;;;6.00;;
73359;SDS011;63092;43.582;19.528;2023-04-03T13:14:34;25.85;;;13.32;;
73359;SDS011;63092;43.582;19.528;2023-04-03T13:17:09;13.55;;;8.07;;
73359;SDS011;63092;43.582;19.528;2023-04-03T13:19:39;15.68;;;10.90;;
73359;SDS011;63092;43.582;19.528;2023-04-03T13:25:05;20.02;;;10.80;;
73359;SDS011;63092;43.582;19.528;2023-04-03T13:27:34;9.48;;;5.72;;
73359;SDS011;63092;43.582;19.528;2023-04-03T13:30:01;16.70;;;9.77;;
73359;SDS011;63092;43.582;19.528;2023-04-03T13:32:29;19.13;;;10.48;;
73359;SDS011;63092;43.582;19.528;2023-04-03T13:34:56;17.52;;;9.55;;
73359;SDS011;63092;43.582;19.528;2023-04-03T13:37:32;11.90;;;6.65;;
73359;SDS011;63092;43.582;19.528;2023-04-03T13:42:31;14.32;;;7.55;;
73359;SDS011;63092;43.582;19.528;2023-04-03T13:53:42;15.27;;;9.25;;
73359;SDS011;63092;43.582;19.528;2023-04-03T14:02:09;16.60;;;9.35;;
73359;SDS011;63092;43.582;19.528;2023-04-03T14:07:05;10.85;;;5.60;;
73359;SDS011;63092;43.582;19.528;2023-04-03T14:09:31;14.70;;;7.20;;
73359;SDS011;63092;43.582;19.528;2023-04-03T14:12:00;21.92;;;11.68;;
73359;SDS011;63092;43.582;19.528;2023-04-03T14:14:32;19.40;;;9.10;;
73359;SDS011;63092;43.582;19.528;2023-04-03T14:17:00;17.52;;;9.95;;
73359;SDS011;63092;43.582;19.528;2023-04-03T14:19:34;12.73;;;6.07;;
73359;SDS011;63092;43.582;19.528;2023-04-03T14:22:05;17.83;;;11.15;;
73359;SDS011;63092;43.582;19.528;2023-04-03T14:24:37;13.75;;;8.63;;
73359;SDS011;63092;43.582;19.528;2023-04-03T14:27:05;17.42;;;10.93;;
73359;SDS011;63092;43.582;19.528;2023-04-03T14:29:40;20.15;;;11.60;;
73359;SDS011;63092;43.582;19.528;2023-04-03T14:32:06;25.48;;;14.55;;
73359;SDS011;63092;43.582;19.528;2023-04-03T14:34:32;21.10;;;13.32;;
73359;SDS011;63092;43.582;19.528;2023-04-03T14:36:57;14.20;;;8.93;;
73359;SDS011;63092;43.582;19.528;2023-04-03T14:39:23;21.08;;;12.18;;
73359;SDS011;63092;43.582;19.528;2023-04-03T14:41:49;31.90;;;18.20;;
73359;SDS011;63092;43.582;19.528;2023-04-03T14:44:15;23.27;;;14.00;;
73359;SDS011;63092;43.582;19.528;2023-04-03T14:46:42;26.23;;;15.05;;
73359;SDS011;63092;43.582;19.528;2023-04-03T14:49:12;17.73;;;10.93;;
73359;SDS011;63092;43.582;19.528;2023-04-03T14:51:40;20.10;;;12.52;;
73359;SDS011;63092;43.582;19.528;2023-04-03T14:54:11;17.45;;;10.75;;
73359;SDS011;63092;43.582;19.528;2023-04-03T14:56:39;12.98;;;7.60;;
73359;SDS011;63092;43.582;19.528;2023-04-03T14:59:05;23.35;;;13.45;;
73359;SDS011;63092;43.582;19.528;2023-04-03T15:01:36;29.13;;;16.23;;
73359;SDS011;63092;43.582;19.528;2023-04-03T15:04:05;34.35;;;17.85;;
73359;SDS011;63092;43.582;19.528;2023-04-03T15:06:38;20.48;;;12.48;;
73359;SDS011;63092;43.582;19.528;2023-04-03T15:09:04;16.10;;;9.40;;
73359;SDS011;63092;43.582;19.528;2023-04-03T15:11:30;28.92;;;17.65;;
73359;SDS011;63092;43.582;19.528;2023-04-03T15:13:55;53.80;;;28.02;;
73359;SDS011;63092;43.582;19.528;2023-04-03T15:16:21;32.13;;;18.10;;
73359;SDS011;63092;43.582;19.528;2023-04-03T15:18:47;23.92;;;14.30;;
73359;SDS011;63092;43.582;19.528;2023-04-03T15:21:13;53.25;;;31.92;;
73359;SDS011;63092;43.582;19.528;2023-04-03T15:23:40;28.02;;;18.20;;
73359;SDS011;63092;43.582;19.528;2023-04-03T15:26:06;23.08;;;15.05;;
73359;SDS011;63092;43.582;19.528;2023-04-03T15:28:34;21.50;;;11.75;;
73359;SDS011;63092;43.582;19.528;2023-04-03T15:31:02;18.38;;;12.32;;
73359;SDS011;63092;43.582;19.528;2023-04-03T15:33:30;32.72;;;16.98;;
73359;SDS011;63092;43.582;19.528;2023-04-03T15:35:57;27.02;;;14.50;;
73359;SDS011;63092;43.582;19.528;2023-04-03T15:38:23;40.47;;;18.73;;
73359;SDS011;63092;43.582;19.528;2023-04-03T15:40:49;39.17;;;18.45;;
73359;SDS011;63092;43.582;19.528;2023-04-03T15:43:15;34.28;;;17.00;;
73359;SDS011;63092;43.582;19.528;2023-04-03T15:45:42;66.38;;;32.85;;
73359;SDS011;63092;43.582;19.528;2023-04-03T15:48:09;23.90;;;11.40;;
73359;SDS011;63092;43.582;19.528;2023-04-03T15:50:35;23.58;;;11.73;;
73359;SDS011;63092;43.582;19.528;2023-04-03T15:53:02;77.97;;;47.60;;
73359;SDS011;63092;43.582;19.528;2023-04-03T15:55:28;41.17;;;21.20;;
73359;SDS011;63092;43.582;19.528;2023-04-03T15:57:55;37.33;;;18.95;;
73359;SDS011;63092;43.582;19.528;2023-04-03T16:00:21;86.13;;;42.60;;
73359;SDS011;63092;43.582;19.528;2023-04-03T16:02:50;46.28;;;25.33;;
73359;SDS011;63092;43.582;19.528;2023-04-03T16:05:18;37.05;;;21.58;;
73359;SDS011;63092;43.582;19.528;2023-04-03T16:07:44;25.38;;;14.40;;
73359;SDS011;63092;43.582;19.528;2023-04-03T16:10:10;19.52;;;11.85;;
73359;SDS011;63092;43.582;19.528;2023-04-03T16:12:37;33.33;;;17.10;;
73359;SDS011;63092;43.582;19.528;2023-04-03T16:15:03;19.42;;;10.93;;
73359;SDS011;63092;43.582;19.528;2023-04-03T16:17:30;20.80;;;12.10;;
73359;SDS011;63092;43.582;19.528;2023-04-03T16:19:57;22.73;;;13.73;;
73359;SDS011;63092;43.582;19.528;2023-04-03T16:22:25;28.95;;;17.85;;
73359;SDS011;63092;43.582;19.528;2023-04-03T16:24:52;83.05;;;38.58;;
73359;SDS011;63092;43.582;19.528;2023-04-03T16:27:18;50.00;;;28.20;;
73359;SDS011;63092;43.582;19.528;2023-04-03T16:29:44;28.67;;;16.85;;
73359;SDS011;63092;43.582;19.528;2023-04-03T16:32:10;37.92;;;23.65;;
73359;SDS011;63092;43.582;19.528;2023-04-03T16:34:37;26.92;;;15.65;;
73359;SDS011;63092;43.582;19.528;2023-04-03T16:37:05;35.80;;;20.55;;
73359;SDS011;63092;43.582;19.528;2023-04-03T16:39:31;26.13;;;16.20;;
73359;SDS011;63092;43.582;19.528;2023-04-03T16:41:56;32.80;;;20.38;;
73359;SDS011;63092;43.582;19.528;2023-04-03T16:44:22;26.95;;;14.13;;
73359;SDS011;63092;43.582;19.528;2023-04-03T16:46:48;30.98;;;19.25;;